createdAt,value
2022-08-19T00:01:32.601Z,68.21
2022-08-19T00:04:08.055Z,68.15
2022-08-19T00:06:38.805Z,68.34
2022-08-19T00:09:08.946Z,68.40
2022-08-19T00:11:38.597Z,68.59
2022-08-19T00:14:08.610Z,68.59
2022-08-19T00:16:36.683Z,68.91
2022-08-19T00:19:05.253Z,68.93
2022-08-19T00:21:35.890Z,69.07
2022-08-19T00:24:06.418Z,69.13
2022-08-19T00:26:35.100Z,69.24
2022-08-19T00:29:03.167Z,69.30
2022-08-19T00:31:32.199Z,69.48
2022-08-19T00:34:00.717Z,69.56
2022-08-19T00:36:29.575Z,69.66
2022-08-19T00:38:59.511Z,69.82
2022-08-19T00:41:29.684Z,69.94
2022-08-19T00:44:03.488Z,70.00
2022-08-19T00:46:32.688Z,70.10
2022-08-19T00:49:01.797Z,70.37
2022-08-19T00:51:33.699Z,70.53
2022-08-19T00:54:03.757Z,70.57
2022-08-19T00:56:33.651Z,70.57
2022-08-19T00:59:02.905Z,70.87
2022-08-19T01:01:30.993Z,70.88
2022-08-19T01:03:59.432Z,70.90
2022-08-19T01:06:27.940Z,71.17
2022-08-19T01:08:57.003Z,71.11
2022-08-19T01:11:25.084Z,71.46
2022-08-19T01:13:56.217Z,71.40
2022-08-19T01:16:27.464Z,71.66
2022-08-19T01:18:55.768Z,71.56
2022-08-19T01:21:30.112Z,71.75
2022-08-19T01:23:59.636Z,72.04
2022-08-19T01:26:29.046Z,72.01
2022-08-19T01:29:02.569Z,71.96
2022-08-19T01:31:33.549Z,72.26
2022-08-19T01:34:03.095Z,72.23
2022-08-19T01:36:36.821Z,72.36
2022-08-19T01:39:08.894Z,72.60
2022-08-19T01:41:37.203Z,72.76
2022-08-19T01:44:17.395Z,72.91
2022-08-19T01:46:49.433Z,73.09
2022-08-19T01:49:20.036Z,73.17
2022-08-19T01:51:48.692Z,73.14
2022-08-19T01:54:23.118Z,73.37
2022-08-19T01:57:00.136Z,73.42
2022-08-19T01:59:28.490Z,73.42
2022-08-19T02:01:56.496Z,73.50
2022-08-19T02:04:26.654Z,73.75
2022-08-19T02:06:54.670Z,73.77
2022-08-19T02:09:24.079Z,74.15
2022-08-19T02:11:52.232Z,73.93
2022-08-19T02:14:20.398Z,74.05
2022-08-19T02:16:48.814Z,74.25
2022-08-19T02:19:16.922Z,74.27
2022-08-19T02:21:45.659Z,74.34
2022-08-19T02:24:14.310Z,74.59
2022-08-19T02:26:43.737Z,74.63
2022-08-19T02:29:12.010Z,74.88
2022-08-19T02:31:40.104Z,74.93
2022-08-19T02:34:08.076Z,75.02
2022-08-19T02:36:36.426Z,75.05
2022-08-19T02:39:09.764Z,75.18
2022-08-19T02:41:37.902Z,75.15
2022-08-19T02:44:28.663Z,75.35
2022-08-19T02:46:56.524Z,75.31
2022-08-19T02:49:24.676Z,75.52
2022-08-19T02:51:52.627Z,75.60
2022-08-19T02:54:21.069Z,75.60
2022-08-19T02:56:49.291Z,75.63
2022-08-19T02:59:18.605Z,75.78
2022-08-19T03:01:51.045Z,75.93
2022-08-19T03:04:20.272Z,75.95
2022-08-19T03:06:49.445Z,76.02
2022-08-19T03:09:19.203Z,76.11
2022-08-19T03:11:47.331Z,76.23
2022-08-19T03:14:20.310Z,76.29
2022-08-19T03:16:51.788Z,76.34
2022-08-19T03:19:22.318Z,76.59
2022-08-19T03:21:51.126Z,76.53
2022-08-19T03:24:21.191Z,76.56
2022-08-19T03:26:52.440Z,76.66
2022-08-19T03:29:30.364Z,76.78
2022-08-19T03:32:01.708Z,76.94
2022-08-19T03:34:32.064Z,76.92
2022-08-19T03:37:05.534Z,77.13
2022-08-19T03:39:33.687Z,77.03
2022-08-19T03:42:31.899Z,77.21
2022-08-19T03:44:53.571Z,77.19
2022-08-19T03:47:21.689Z,77.32
2022-08-19T03:49:49.734Z,77.41
2022-08-19T03:52:17.641Z,77.38
2022-08-19T03:54:46.017Z,77.31
2022-08-19T03:57:14.506Z,77.49
2022-08-19T03:59:42.756Z,77.47
2022-08-19T04:02:14.285Z,77.81
2022-08-19T04:04:45.123Z,77.64
2022-08-19T04:07:16.971Z,77.78
2022-08-19T04:09:45.731Z,77.92
2022-08-19T04:12:13.976Z,77.93
2022-08-19T04:14:42.649Z,77.90
2022-08-19T04:17:14.091Z,77.90
2022-08-19T04:19:44.066Z,78.14
2022-08-19T04:22:13.058Z,78.09
2022-08-19T04:24:41.250Z,78.26
2022-08-19T04:27:15.963Z,78.14
2022-08-19T04:29:44.251Z,78.21
2022-08-19T04:32:16.710Z,78.38
2022-08-19T04:35:02.195Z,78.27
2022-08-19T04:37:35.705Z,78.49
2022-08-19T04:40:25.580Z,78.42
2022-08-19T04:42:54.741Z,78.43
2022-08-19T04:45:23.308Z,78.50
2022-08-19T04:48:26.877Z,78.65
2022-08-19T04:50:46.784Z,78.62
2022-08-19T04:53:14.957Z,78.67
2022-08-19T04:55:43.984Z,78.68
2022-08-19T04:58:12.068Z,78.68
2022-08-19T05:00:41.982Z,78.75
2022-08-19T05:03:11.684Z,78.68
2022-08-19T05:05:45.144Z,78.80
2022-08-19T05:08:31.253Z,78.86
2022-08-19T05:10:59.800Z,78.86
2022-08-19T05:13:28.528Z,78.72
2022-08-19T05:15:58.647Z,78.86
2022-08-19T05:18:46.846Z,78.96
2022-08-19T05:21:35.682Z,78.93
2022-08-19T05:24:04.228Z,79.21
2022-08-19T05:26:32.318Z,78.91
2022-08-19T05:29:00.737Z,79.15
2022-08-19T05:31:28.764Z,78.98
2022-08-19T05:33:59.602Z,79.05
2022-08-19T05:36:28.113Z,79.12
2022-08-19T05:38:56.909Z,79.20
2022-08-19T05:41:30.455Z,79.16
2022-08-19T05:43:58.981Z,79.19
2022-08-19T05:46:28.149Z,79.15
2022-08-19T05:48:57.569Z,79.20
2022-08-19T05:51:29.231Z,79.34
2022-08-19T05:53:57.782Z,79.37
2022-08-19T05:56:26.175Z,79.21
2022-08-19T05:58:55.279Z,79.27
2022-08-19T06:01:28.294Z,79.36
2022-08-19T06:03:56.610Z,79.51
2022-08-19T06:06:26.022Z,79.23
2022-08-19T06:08:53.993Z,79.47
2022-08-19T06:11:24.399Z,79.39
2022-08-19T06:13:59.746Z,79.45
2022-08-19T06:16:41.780Z,79.41
2022-08-19T06:19:12.810Z,79.41
2022-08-19T06:21:44.477Z,79.57
2022-08-19T06:24:16.158Z,79.33
2022-08-19T06:29:23.831Z,79.47
2022-08-19T06:31:54.907Z,79.20
2022-08-19T06:34:23.083Z,79.22
2022-08-19T06:36:53.671Z,79.56
2022-08-19T06:39:26.308Z,79.21
2022-08-19T06:41:58.903Z,79.55
2022-08-19T06:44:31.813Z,79.41
2022-08-19T06:46:59.884Z,79.64
2022-08-19T06:49:32.607Z,79.21
2022-08-19T06:52:02.597Z,79.24
2022-08-19T06:54:37.797Z,79.35
2022-08-19T06:57:22.208Z,79.39
2022-08-19T06:59:50.431Z,79.47
2022-08-19T07:04:52.650Z,79.24
2022-08-19T07:07:23.252Z,79.13
2022-08-19T07:09:59.974Z,79.26
2022-08-19T07:12:32.378Z,79.06
2022-08-19T07:15:00.646Z,79.03
2022-08-19T07:17:30.108Z,78.85
2022-08-19T07:20:05.437Z,78.98
2022-08-19T07:22:38.934Z,79.03
2022-08-19T07:25:21.895Z,78.90
2022-08-19T07:28:01.574Z,78.52
2022-08-19T07:30:34.201Z,78.63
2022-08-19T07:33:03.446Z,78.85
2022-08-19T07:35:33.161Z,78.43
2022-08-19T07:38:04.989Z,78.47
2022-08-19T07:40:35.314Z,78.42
2022-08-19T07:43:03.266Z,78.37
2022-08-19T07:45:34.605Z,78.11
2022-08-19T07:48:02.716Z,77.85
2022-08-19T07:50:32.585Z,78.03
2022-08-19T07:53:01.999Z,77.93
2022-08-19T07:55:42.026Z,77.94
2022-08-19T07:58:17.563Z,77.92
2022-08-19T08:00:47.363Z,77.84
2022-08-19T08:03:16.673Z,77.65
2022-08-19T08:06:03.501Z,77.43
2022-08-19T08:08:51.479Z,77.38
2022-08-19T08:11:23.998Z,76.95
2022-08-19T08:14:00.963Z,76.94
2022-08-19T08:16:33.341Z,76.67
2022-08-19T08:19:02.959Z,76.93
2022-08-19T08:21:36.751Z,76.59
2022-08-19T08:24:06.553Z,76.66
2022-08-19T08:26:34.980Z,76.27
2022-08-19T08:29:03.224Z,76.34
2022-08-19T08:31:42.549Z,75.83
2022-08-19T08:34:15.410Z,75.80
2022-08-19T08:36:47.119Z,75.75
2022-08-19T08:39:19.353Z,75.80
2022-08-19T08:41:55.271Z,75.63
2022-08-19T08:44:26.056Z,75.44
2022-08-19T08:47:01.350Z,75.37
2022-08-19T08:49:35.746Z,74.94
2022-08-19T08:52:07.407Z,75.01
2022-08-19T08:54:49.159Z,74.92
2022-08-19T08:57:28.923Z,74.91
2022-08-19T09:00:07.252Z,74.55
2022-08-19T09:02:43.586Z,74.23
2022-08-19T09:05:16.667Z,74.12
2022-08-19T09:07:53.183Z,74.09
2022-08-19T09:10:34.069Z,73.94
2022-08-19T09:13:14.344Z,73.38
2022-08-19T09:15:52.069Z,73.58
2022-08-19T09:18:20.920Z,72.95
2022-08-19T09:20:49.770Z,72.95
2022-08-19T09:23:18.273Z,72.83
2022-08-19T09:25:59.363Z,72.66
2022-08-19T09:28:31.084Z,72.65
2022-08-19T09:31:04.323Z,72.53
2022-08-19T09:33:35.829Z,72.35
2022-08-19T09:36:08.600Z,71.79
2022-08-19T09:38:37.845Z,71.78
2022-08-19T09:41:15.716Z,71.54
2022-08-19T09:43:49.044Z,71.31
2022-08-19T09:46:23.891Z,71.18
2022-08-19T09:48:55.554Z,70.67
2022-08-19T09:51:33.063Z,70.36
2022-08-19T09:54:05.190Z,70.15
2022-08-19T09:56:37.349Z,69.59
2022-08-19T09:59:05.766Z,69.37
2022-08-19T10:01:34.919Z,69.30
2022-08-19T10:04:14.580Z,69.29
2022-08-19T10:06:53.758Z,69.08
2022-08-19T10:09:34.319Z,68.65
2022-08-19T10:12:11.139Z,68.12
2022-08-19T10:14:41.527Z,67.46
2022-08-19T10:17:19.843Z,67.52
2022-08-19T10:19:55.777Z,66.71
2022-08-19T10:22:25.674Z,66.34
2022-08-19T10:24:55.309Z,66.45
2022-08-19T10:27:26.355Z,65.62
2022-08-19T10:29:54.963Z,65.13
2022-08-19T10:32:34.387Z,64.58
2022-08-19T10:35:02.854Z,64.21
2022-08-19T10:37:42.319Z,63.87
2022-08-19T10:40:24.766Z,63.54
2022-08-19T10:42:54.486Z,63.32
2022-08-19T10:45:28.132Z,62.88
2022-08-19T10:47:56.825Z,62.58
2022-08-19T10:50:42.054Z,62.25
2022-08-19T10:53:10.912Z,61.70
2022-08-19T10:55:59.783Z,61.45
2022-08-19T10:58:29.380Z,60.82
2022-08-19T11:00:59.599Z,60.64
2022-08-19T11:03:28.774Z,60.16
2022-08-19T11:06:01.641Z,59.75
2022-08-19T11:08:31.669Z,59.47
2022-08-19T11:11:04.324Z,59.12
2022-08-19T11:13:39.953Z,58.91
2022-08-19T11:16:11.290Z,58.47
2022-08-19T11:18:41.335Z,57.97
2022-08-19T11:21:15.414Z,57.58
2022-08-19T11:23:44.293Z,57.11
2022-08-19T11:26:12.599Z,57.15
2022-08-19T11:28:47.677Z,56.24
2022-08-19T11:31:18.103Z,56.38
2022-08-19T11:33:47.648Z,56.43
2022-08-19T11:36:17.089Z,55.92
2022-08-19T11:38:45.684Z,55.60
2022-08-19T11:41:13.805Z,55.31
2022-08-19T11:43:46.356Z,55.33
2022-08-19T11:46:16.110Z,54.82
2022-08-19T11:48:47.209Z,54.89
2022-08-19T11:51:19.435Z,54.30
2022-08-19T11:53:48.069Z,54.01
2022-08-19T11:56:16.122Z,54.16
2022-08-19T11:58:48.694Z,53.90
2022-08-19T12:01:19.421Z,53.63
2022-08-19T12:03:48.935Z,53.16
2022-08-19T12:06:22.077Z,53.11
2022-08-19T12:08:50.201Z,53.01
2022-08-19T12:11:18.342Z,52.80
2022-08-19T12:13:48.796Z,52.81
2022-08-19T12:16:20.073Z,52.37
2022-08-19T12:18:49.157Z,52.17
2022-08-19T12:21:17.550Z,52.21
2022-08-19T12:23:47.506Z,51.87
2022-08-19T12:26:15.528Z,51.91
2022-08-19T12:28:43.726Z,51.73
2022-08-19T12:31:35.171Z,51.38
2022-08-19T12:34:03.666Z,51.11
2022-08-19T12:36:31.927Z,50.78
2022-08-19T12:39:01.842Z,50.74
2022-08-19T12:41:30.412Z,50.55
2022-08-19T12:43:59.256Z,50.71
2022-08-19T12:46:27.136Z,50.38
2022-08-19T12:48:56.799Z,50.20
2022-08-19T12:51:32.908Z,49.93
2022-08-19T12:54:08.337Z,50.14
2022-08-19T12:56:38.163Z,50.06
2022-08-19T12:59:09.144Z,49.87
2022-08-19T13:01:39.565Z,49.77
2022-08-19T13:04:09.954Z,49.58
2022-08-19T13:06:38.156Z,49.65
2022-08-19T13:09:06.943Z,49.19
2022-08-19T13:11:35.433Z,49.20
2022-08-19T13:14:05.073Z,49.00
2022-08-19T13:16:33.946Z,49.12
2022-08-19T13:19:06.557Z,49.18
2022-08-19T13:21:45.911Z,48.74
2022-08-19T13:24:14.409Z,48.92
2022-08-19T13:26:46.150Z,48.98
2022-08-19T13:29:31.813Z,48.46
2022-08-19T13:32:18.661Z,48.72
2022-08-19T13:34:49.780Z,48.69
2022-08-19T13:37:39.081Z,48.10
2022-08-19T13:40:08.706Z,48.09
2022-08-19T13:42:36.661Z,48.17
2022-08-19T13:45:05.925Z,47.86
2022-08-19T13:47:35.496Z,47.97
2022-08-19T13:50:05.177Z,47.74
2022-08-19T13:52:37.312Z,47.83
2022-08-19T13:55:06.488Z,47.67
2022-08-19T13:57:35.822Z,47.84
2022-08-19T14:00:18.503Z,47.90
2022-08-19T14:02:47.647Z,47.79
2022-08-19T14:05:18.517Z,47.49
2022-08-19T14:07:49.104Z,47.23
2022-08-19T14:10:18.144Z,47.52
2022-08-19T14:12:47.042Z,47.23
2022-08-19T14:15:16.623Z,47.15
2022-08-19T14:17:50.319Z,47.04
2022-08-19T14:20:18.920Z,46.94
2022-08-19T14:22:54.012Z,46.57
2022-08-19T14:25:24.548Z,46.86
2022-08-19T14:27:53.399Z,46.47
2022-08-19T14:30:26.548Z,46.67
2022-08-19T14:32:55.127Z,46.67
2022-08-19T14:35:24.032Z,46.39
2022-08-19T14:37:56.744Z,46.37
2022-08-19T14:40:27.676Z,46.33
2022-08-19T14:43:00.313Z,46.06
2022-08-19T14:45:38.984Z,46.19
2022-08-19T14:48:12.554Z,45.59
2022-08-19T14:50:47.708Z,45.56
2022-08-19T14:53:18.405Z,45.72
2022-08-19T14:55:48.156Z,45.42
2022-08-19T14:58:29.086Z,45.24
2022-08-19T15:01:04.559Z,45.35
2022-08-19T15:03:38.544Z,44.97
2022-08-19T15:06:07.793Z,45.28
2022-08-19T15:08:42.047Z,45.03
2022-08-19T15:11:12.119Z,44.93
2022-08-19T15:13:41.167Z,44.44
2022-08-19T15:16:25.692Z,44.44
2022-08-19T15:19:01.926Z,44.00
2022-08-19T15:21:31.836Z,44.58
2022-08-19T15:24:14.495Z,44.31
2022-08-19T15:26:43.818Z,43.69
2022-08-19T15:29:13.988Z,43.79
2022-08-19T15:31:42.550Z,43.90
2022-08-19T15:34:10.834Z,43.79
2022-08-19T15:36:40.954Z,43.61
2022-08-19T15:39:13.057Z,43.51
2022-08-19T15:41:41.196Z,43.23
2022-08-19T15:44:12.472Z,43.20
2022-08-19T15:46:43.793Z,43.31
2022-08-19T15:49:14.326Z,42.93
2022-08-19T15:51:44.094Z,42.83
2022-08-19T15:54:16.538Z,42.76
2022-08-19T15:57:07.777Z,42.52
2022-08-19T15:59:55.039Z,42.57
2022-08-19T16:02:44.329Z,42.32
2022-08-19T16:05:34.618Z,42.68
2022-08-19T16:08:02.771Z,42.24
2022-08-19T16:10:32.473Z,42.45
2022-08-19T16:13:00.759Z,42.36
2022-08-19T16:15:31.520Z,42.20
2022-08-19T16:18:02.451Z,41.99
2022-08-19T16:20:33.193Z,41.97
2022-08-19T16:23:06.552Z,41.96
2022-08-19T16:25:36.528Z,41.83
2022-08-19T16:28:06.339Z,42.11
2022-08-19T16:30:38.605Z,41.71
2022-08-19T16:33:07.316Z,41.72
2022-08-19T16:35:35.647Z,41.52
2022-08-19T16:38:04.020Z,41.83
2022-08-19T16:40:32.322Z,41.60
2022-08-19T16:43:02.494Z,41.65
2022-08-19T16:45:31.799Z,41.45
2022-08-19T16:48:00.160Z,41.58
2022-08-19T16:50:46.226Z,41.50
2022-08-19T16:53:32.117Z,41.45
2022-08-19T16:56:01.748Z,41.63
2022-08-19T16:58:34.275Z,41.31
2022-08-19T17:01:04.975Z,41.36
2022-08-19T17:03:36.467Z,41.61
2022-08-19T17:06:18.359Z,41.32
2022-08-19T17:08:49.406Z,41.50
2022-08-19T17:11:18.874Z,41.29
2022-08-19T17:13:52.386Z,41.46
2022-08-19T17:16:24.860Z,41.60
2022-08-19T17:18:57.079Z,41.63
2022-08-19T17:21:33.990Z,41.67
2022-08-19T17:24:05.167Z,41.82
2022-08-19T17:26:33.411Z,41.72
2022-08-19T17:29:03.113Z,41.64
2022-08-19T17:31:32.585Z,41.68
2022-08-19T17:34:01.233Z,42.00
2022-08-19T17:36:35.954Z,41.82
2022-08-19T17:39:05.274Z,42.12
2022-08-19T17:41:34.927Z,42.01
2022-08-19T17:44:05.742Z,42.05
2022-08-19T17:46:34.006Z,41.97
2022-08-19T17:49:02.194Z,42.08
2022-08-19T17:51:42.494Z,42.24
2022-08-19T17:54:12.659Z,42.38
2022-08-19T17:56:41.814Z,42.41
2022-08-19T17:59:14.302Z,42.43
2022-08-19T18:01:53.259Z,42.36
2022-08-19T18:04:24.979Z,42.64
2022-08-19T18:06:54.963Z,42.69
2022-08-19T18:09:38.629Z,42.87
2022-08-19T18:12:11.491Z,42.86
2022-08-19T18:14:43.025Z,42.96
2022-08-19T18:17:14.025Z,42.91
2022-08-19T18:19:44.156Z,43.14
2022-08-19T18:22:13.761Z,43.05
2022-08-19T18:24:46.030Z,43.22
2022-08-19T18:27:14.553Z,43.24
2022-08-19T18:29:43.981Z,43.25
2022-08-19T18:32:13.800Z,43.36
2022-08-19T18:34:43.076Z,43.67
2022-08-19T18:37:11.682Z,43.48
2022-08-19T18:39:58.072Z,43.63
2022-08-19T18:42:44.099Z,43.75
2022-08-19T18:45:31.428Z,43.88
2022-08-19T18:48:26.334Z,44.00
2022-08-19T18:50:55.313Z,44.08
2022-08-19T18:53:23.321Z,44.36
2022-08-19T18:55:53.983Z,44.57
2022-08-19T18:58:26.183Z,44.46
2022-08-19T19:00:57.552Z,44.71
2022-08-19T19:03:26.401Z,44.80
2022-08-19T19:05:54.722Z,44.88
2022-08-19T19:08:27.125Z,44.79
2022-08-19T19:10:56.309Z,45.21
2022-08-19T19:13:24.373Z,45.26
2022-08-19T19:15:52.461Z,45.20
2022-08-19T19:18:22.097Z,45.21
2022-08-19T19:20:50.051Z,45.63
2022-08-19T19:23:18.001Z,45.54
2022-08-19T19:25:50.196Z,45.60
2022-08-19T19:28:25.383Z,45.87
2022-08-19T19:30:54.400Z,46.02
2022-08-19T19:33:23.695Z,45.87
2022-08-19T19:35:51.572Z,46.04
2022-08-19T19:38:19.903Z,46.59
2022-08-19T19:40:47.965Z,46.64
2022-08-19T19:43:18.441Z,46.34
2022-08-19T19:45:48.436Z,46.53
2022-08-19T19:48:16.898Z,46.86
2022-08-19T19:50:46.702Z,47.02
2022-08-19T19:53:24.270Z,47.16
2022-08-19T19:55:57.938Z,47.26
2022-08-19T19:58:28.818Z,47.12
2022-08-19T20:00:58.189Z,47.70
2022-08-19T20:03:26.593Z,47.55
2022-08-19T20:05:59.187Z,47.72
2022-08-19T20:08:44.719Z,47.87
2022-08-19T20:11:13.019Z,48.05
2022-08-19T20:13:41.424Z,47.88
2022-08-19T20:16:09.538Z,48.15
2022-08-19T20:18:40.258Z,48.61
2022-08-19T20:21:09.518Z,48.33
2022-08-19T20:23:39.584Z,48.55
2022-08-19T20:26:08.504Z,49.00
2022-08-19T20:28:50.661Z,48.99
2022-08-19T20:31:27.017Z,48.98
2022-08-19T20:33:58.163Z,49.26
2022-08-19T20:36:27.628Z,49.38
2022-08-19T20:38:55.573Z,49.34
2022-08-19T20:41:23.775Z,49.43
2022-08-19T20:43:52.655Z,49.51
2022-08-19T20:46:20.510Z,49.98
2022-08-19T20:48:48.771Z,49.82
2022-08-19T20:51:18.227Z,50.09
2022-08-19T20:53:47.617Z,50.20
2022-08-19T20:56:19.253Z,50.24
2022-08-19T20:58:51.839Z,50.38
2022-08-19T21:01:22.608Z,50.63
2022-08-19T21:03:51.784Z,50.66
2022-08-19T21:06:20.434Z,50.82
2022-08-19T21:08:54.670Z,51.20
2022-08-19T21:11:22.827Z,51.10
2022-08-19T21:13:50.821Z,51.42
2022-08-19T21:16:18.932Z,51.69
2022-08-19T21:18:52.410Z,51.63
2022-08-19T21:21:20.647Z,51.81
2022-08-19T21:23:49.689Z,51.87
2022-08-19T21:26:21.106Z,51.89
2022-08-19T21:28:49.302Z,51.96
2022-08-19T21:31:18.008Z,52.24
2022-08-19T21:33:46.527Z,52.23
2022-08-19T21:36:14.502Z,52.34
2022-08-19T21:38:42.516Z,52.44
2022-08-19T21:41:10.918Z,52.65
2022-08-19T21:43:40.687Z,52.92
2022-08-19T21:46:09.075Z,52.96
2022-08-19T21:48:37.743Z,53.31
2022-08-19T21:51:05.957Z,53.26
2022-08-19T21:53:34.834Z,53.56
2022-08-19T21:56:03.143Z,53.60
2022-08-19T21:58:31.483Z,53.67
2022-08-19T22:01:06.118Z,53.82
2022-08-19T22:03:34.474Z,53.96
2022-08-19T22:06:02.810Z,54.19
2022-08-19T22:08:31.613Z,54.22
2022-08-19T22:11:00.358Z,54.24
2022-08-19T22:13:29.325Z,54.67
2022-08-19T22:15:57.860Z,54.75
2022-08-19T22:18:28.203Z,54.74
2022-08-19T22:20:56.804Z,55.00
2022-08-19T22:23:24.844Z,54.92
2022-08-19T22:25:52.762Z,55.35
2022-08-19T22:28:27.881Z,55.25
2022-08-19T22:31:31.629Z,55.42
2022-08-19T22:34:01.889Z,55.76
2022-08-19T22:36:31.821Z,55.82
2022-08-19T22:39:24.496Z,56.23
2022-08-19T22:51:40.780Z,56.92
2022-08-19T22:54:11.394Z,56.75
2022-08-19T22:56:39.413Z,57.12
2022-08-19T22:59:08.624Z,57.29
2022-08-19T23:01:37.302Z,57.04
2022-08-19T23:04:05.857Z,57.55
2022-08-19T23:06:39.116Z,57.76
2022-08-19T23:09:10.356Z,57.66
2022-08-19T23:11:42.128Z,58.06
2022-08-19T23:14:11.658Z,57.88
2022-08-19T23:16:41.712Z,58.07
2022-08-19T23:19:10.068Z,58.13
2022-08-19T23:21:39.825Z,58.51
2022-08-19T23:24:08.280Z,58.61
2022-08-19T23:26:36.336Z,58.37
2022-08-19T23:29:23.434Z,58.92
2022-08-19T23:31:51.846Z,58.91
2022-08-19T23:34:19.950Z,59.06
2022-08-19T23:36:50.512Z,59.05
2022-08-19T23:39:19.267Z,59.11
2022-08-19T23:41:47.389Z,59.34
2022-08-19T23:44:15.805Z,59.39
2022-08-19T23:46:55.258Z,59.35
2022-08-19T23:49:26.498Z,59.45
2022-08-19T23:51:56.583Z,59.91
2022-08-19T23:54:27.477Z,59.72
2022-08-19T23:57:14.400Z,59.88
2022-08-19T23:59:45.706Z,59.98
